createdAt,value
2023-04-17T00:00:49.534Z,0.00
2023-04-17T00:01:49.615Z,0.00
2023-04-17T00:02:49.683Z,0.00
2023-04-17T00:03:49.650Z,0.00
2023-04-17T00:04:49.793Z,0.00
2023-04-17T00:05:49.531Z,0.00
2023-04-17T00:06:49.525Z,0.00
2023-04-17T00:07:49.525Z,0.00
2023-04-17T00:08:49.518Z,0.00
2023-04-17T00:09:49.519Z,0.00
2023-04-17T00:11:00.201Z,0.00
2023-04-17T00:11:49.517Z,0.00
2023-04-17T00:12:49.516Z,0.00
2023-04-17T00:13:49.534Z,0.00
2023-04-17T00:14:49.508Z,0.00
2023-04-17T00:15:49.526Z,0.00
2023-04-17T00:16:49.601Z,0.00
2023-04-17T00:17:49.537Z,0.00
2023-04-17T00:18:49.501Z,0.00
2023-04-17T00:19:49.506Z,0.00
2023-04-17T00:20:49.496Z,0.00
2023-04-17T00:21:49.505Z,0.00
2023-04-17T00:22:49.496Z,0.00
2023-04-17T00:23:49.495Z,0.00
2023-04-17T00:24:49.502Z,0.00
2023-04-17T00:25:49.492Z,0.00
2023-04-17T00:26:49.481Z,0.00
2023-04-17T00:27:49.485Z,0.00
2023-04-17T00:28:49.481Z,0.00
2023-04-17T00:29:49.516Z,0.00
2023-04-17T00:30:49.479Z,0.00
2023-04-17T00:31:49.594Z,0.00
2023-04-17T00:32:49.515Z,0.00
2023-04-17T00:33:49.475Z,0.00
2023-04-17T00:34:49.467Z,0.00
2023-04-17T00:35:49.474Z,0.00
2023-04-17T00:36:49.462Z,0.00
2023-04-17T00:37:49.476Z,0.00
2023-04-17T00:38:49.463Z,0.00
2023-04-17T00:39:49.461Z,0.00
2023-04-17T00:40:49.462Z,0.00
2023-04-17T00:41:49.464Z,0.00
2023-04-17T00:42:49.455Z,0.00
2023-04-17T00:43:49.458Z,0.00
2023-04-17T00:44:49.460Z,0.00
2023-04-17T00:45:49.515Z,0.00
2023-04-17T00:46:49.445Z,0.00
2023-04-17T00:47:49.514Z,0.00
2023-04-17T00:48:49.447Z,0.00
2023-04-17T00:49:49.445Z,0.00
2023-04-17T00:50:49.437Z,0.00
2023-04-17T00:51:49.443Z,0.00
2023-04-17T00:52:49.437Z,0.00
2023-04-17T00:53:49.453Z,0.00
2023-04-17T00:54:49.753Z,0.00
2023-04-17T00:55:49.437Z,0.00
2023-04-17T00:56:49.427Z,0.00
2023-04-17T00:57:49.429Z,0.00
2023-04-17T00:58:49.429Z,0.00
2023-04-17T00:59:49.425Z,0.00
2023-04-17T01:00:49.476Z,0.00
2023-04-17T01:01:49.556Z,0.00
2023-04-17T01:02:49.506Z,0.00
2023-04-17T01:03:49.619Z,0.00
2023-04-17T01:04:49.414Z,0.00
2023-04-17T01:05:49.415Z,0.00
2023-04-17T01:06:49.409Z,0.00
2023-04-17T01:07:49.410Z,0.00
2023-04-17T01:08:49.413Z,0.00
2023-04-17T01:09:49.406Z,0.00
2023-04-17T01:10:49.403Z,0.00
2023-04-17T01:11:49.410Z,0.00
2023-04-17T01:12:49.408Z,0.00
2023-04-17T01:13:49.390Z,0.00
2023-04-17T01:14:49.396Z,0.00
2023-04-17T01:15:49.388Z,0.00
2023-04-17T01:16:49.468Z,0.00
2023-04-17T01:17:49.446Z,0.00
2023-04-17T01:18:49.400Z,0.00
2023-04-17T01:19:49.418Z,0.00
2023-04-17T01:20:49.379Z,0.00
2023-04-17T01:21:49.380Z,0.00
2023-04-17T01:22:49.374Z,0.00
2023-04-17T01:23:49.380Z,0.00
2023-04-17T01:24:49.369Z,0.00
2023-04-17T01:25:49.365Z,0.00
2023-04-17T01:26:49.369Z,0.00
2023-04-17T01:27:49.362Z,0.00
2023-04-17T01:28:49.360Z,0.00
2023-04-17T01:29:49.366Z,0.00
2023-04-17T01:30:49.366Z,0.00
2023-04-17T01:31:49.354Z,0.00
2023-04-17T01:32:49.383Z,0.00
2023-04-17T01:33:49.347Z,0.00
2023-04-17T01:34:49.357Z,0.00
2023-04-17T01:35:49.368Z,0.00
2023-04-17T01:36:49.349Z,0.00
2023-04-17T01:37:49.343Z,0.00
2023-04-17T01:38:49.348Z,0.00
2023-04-17T01:39:49.337Z,0.00
2023-04-17T01:40:49.347Z,0.00
2023-04-17T01:41:49.335Z,0.00
2023-04-17T01:42:49.336Z,0.00
2023-04-17T01:43:49.333Z,0.00
2023-04-17T01:44:49.326Z,0.00
2023-04-17T01:45:49.348Z,0.00
2023-04-17T01:46:49.334Z,0.00
2023-04-17T01:47:49.400Z,0.00
2023-04-17T01:48:49.322Z,0.00
2023-04-17T01:49:49.325Z,0.00
2023-04-17T01:50:49.323Z,0.00
2023-04-17T01:51:49.333Z,0.00
2023-04-17T01:52:49.324Z,0.00
2023-04-17T01:53:49.317Z,0.00
2023-04-17T01:54:49.309Z,0.00
2023-04-17T01:55:49.304Z,0.00
2023-04-17T01:56:49.306Z,0.00
2023-04-17T01:57:49.299Z,0.00
2023-04-17T01:58:49.306Z,0.00
2023-04-17T01:59:49.300Z,0.00
2023-04-17T02:00:49.299Z,0.00
2023-04-17T02:01:49.309Z,0.00
2023-04-17T02:02:49.422Z,0.00
2023-04-17T02:03:49.453Z,0.00
2023-04-17T02:04:49.289Z,0.00
2023-04-17T02:05:49.287Z,0.00
2023-04-17T02:06:49.286Z,0.00
2023-04-17T02:07:49.299Z,0.00
2023-04-17T02:08:49.281Z,0.00
2023-04-17T02:09:49.282Z,0.00
2023-04-17T02:10:49.289Z,0.00
2023-04-17T02:11:49.268Z,0.00
2023-04-17T02:12:49.274Z,0.00
2023-04-17T02:13:49.271Z,0.00
2023-04-17T02:14:49.270Z,0.00
2023-04-17T02:15:49.281Z,0.00
2023-04-17T02:16:49.258Z,0.00
2023-04-17T02:17:49.292Z,0.00
2023-04-17T02:18:49.260Z,0.00
2023-04-17T02:19:49.252Z,0.00
2023-04-17T02:20:49.256Z,0.00
2023-04-17T02:21:49.254Z,0.00
2023-04-17T02:22:49.251Z,0.00
2023-04-17T02:23:49.275Z,0.00
2023-04-17T02:24:49.244Z,0.00
2023-04-17T02:25:49.237Z,0.00
2023-04-17T02:26:49.243Z,0.00
2023-04-17T02:27:49.233Z,0.00
2023-04-17T02:28:49.237Z,0.00
2023-04-17T02:29:49.229Z,0.00
2023-04-17T02:30:49.260Z,0.00
2023-04-17T02:31:49.288Z,0.00
2023-04-17T02:32:49.252Z,0.00
2023-04-17T02:33:49.221Z,0.00
2023-04-17T02:34:49.230Z,0.00
2023-04-17T02:35:49.232Z,0.00
2023-04-17T02:36:49.231Z,0.00
2023-04-17T02:37:49.232Z,0.00
2023-04-17T02:38:49.216Z,0.00
2023-04-17T02:39:49.235Z,0.00
2023-04-17T02:40:49.215Z,0.00
2023-04-17T02:41:49.204Z,0.00
2023-04-17T02:42:49.210Z,0.00
2023-04-17T02:43:49.198Z,0.00
2023-04-17T02:44:49.198Z,0.00
2023-04-17T02:45:49.207Z,0.00
2023-04-17T02:46:49.275Z,8.00
2023-04-17T02:47:49.272Z,8.00
2023-04-17T02:48:49.195Z,8.00
2023-04-17T02:49:49.191Z,8.00
2023-04-17T02:50:49.195Z,8.00
2023-04-17T02:51:49.185Z,8.00
2023-04-17T02:52:49.190Z,8.00
2023-04-17T02:53:49.186Z,8.00
2023-04-17T02:54:49.193Z,8.00
2023-04-17T02:55:49.327Z,8.00
2023-04-17T02:56:49.178Z,8.00
2023-04-17T02:57:49.169Z,8.00
2023-04-17T02:58:49.180Z,8.00
2023-04-17T02:59:49.170Z,8.00
2023-04-17T03:00:49.167Z,8.00
2023-04-17T03:01:49.182Z,8.00
2023-04-17T03:02:49.310Z,8.00
2023-04-17T03:03:49.388Z,8.00
2023-04-17T03:04:49.168Z,8.00
2023-04-17T03:05:49.155Z,8.00
2023-04-17T03:06:49.155Z,8.00
2023-04-17T03:07:49.149Z,8.00
2023-04-17T03:08:49.147Z,8.00
2023-04-17T03:09:49.149Z,8.00
2023-04-17T03:10:49.157Z,8.00
2023-04-17T03:11:49.163Z,8.00
2023-04-17T03:12:49.135Z,8.00
2023-04-17T03:13:49.144Z,8.00
2023-04-17T03:14:49.142Z,8.00
2023-04-17T03:15:49.139Z,8.00
2023-04-17T03:16:49.178Z,8.00
2023-04-17T03:17:49.187Z,0.00
2023-04-17T03:18:49.126Z,0.00
2023-04-17T03:19:49.129Z,0.00
2023-04-17T03:20:49.119Z,0.00
2023-04-17T03:21:49.119Z,0.00
2023-04-17T03:22:49.126Z,0.00
2023-04-17T03:23:49.106Z,0.00
2023-04-17T03:24:49.116Z,0.00
2023-04-17T03:25:49.129Z,0.00
2023-04-17T03:26:49.120Z,0.00
2023-04-17T03:27:49.123Z,0.00
2023-04-17T03:28:49.101Z,0.00
2023-04-17T03:29:49.103Z,0.00
2023-04-17T03:30:49.109Z,4.00
2023-04-17T03:31:49.163Z,4.00
2023-04-17T03:32:49.153Z,4.00
2023-04-17T03:33:49.082Z,0.00
2023-04-17T03:34:49.089Z,0.00
2023-04-17T03:35:49.080Z,0.00
2023-04-17T03:36:49.083Z,4.00
2023-04-17T03:37:49.080Z,4.00
2023-04-17T03:38:49.074Z,0.00
2023-04-17T03:39:49.071Z,4.00
2023-04-17T03:40:49.074Z,4.00
2023-04-17T03:41:49.067Z,4.00
2023-04-17T03:42:49.070Z,8.00
2023-04-17T03:44:28.576Z,8.00
2023-04-17T03:45:28.626Z,4.00
2023-04-17T03:46:28.518Z,8.00
2023-04-17T03:47:28.425Z,8.00
2023-04-17T03:48:28.424Z,8.00
2023-04-17T03:49:28.415Z,12.00
2023-04-17T03:50:28.412Z,16.00
2023-04-17T03:51:28.403Z,20.00
2023-04-17T03:52:28.418Z,16.00
2023-04-17T03:53:28.399Z,24.00
2023-04-17T03:54:28.406Z,28.00
2023-04-17T03:55:28.401Z,28.00
2023-04-17T03:56:28.405Z,36.00
2023-04-17T03:57:28.403Z,40.00
2023-04-17T03:58:28.379Z,44.00
2023-04-17T03:59:28.422Z,48.00
2023-04-17T04:00:28.398Z,52.00
2023-04-17T04:01:28.495Z,60.00
2023-04-17T04:02:28.503Z,64.00
2023-04-17T04:03:28.480Z,72.00
2023-04-17T04:04:28.527Z,76.00
2023-04-17T04:05:28.433Z,84.00
2023-04-17T04:06:28.355Z,92.00
2023-04-17T04:07:28.346Z,100.00
2023-04-17T04:08:28.349Z,108.00
2023-04-17T04:09:28.342Z,112.00
2023-04-17T04:10:28.341Z,120.00
2023-04-17T04:11:28.343Z,124.00
2023-04-17T04:12:28.341Z,132.00
2023-04-17T04:13:28.335Z,144.00
2023-04-17T04:14:28.334Z,160.00
2023-04-17T04:15:28.322Z,172.00
2023-04-17T04:16:28.456Z,192.00
2023-04-17T04:17:28.366Z,204.00
2023-04-17T04:18:28.314Z,220.00
2023-04-17T04:19:28.319Z,232.00
2023-04-17T04:20:28.332Z,248.00
2023-04-17T04:21:28.307Z,260.00
2023-04-17T04:22:28.307Z,276.00
2023-04-17T04:23:28.416Z,284.00
2023-04-17T04:24:28.323Z,292.00
2023-04-17T04:25:28.295Z,304.00
2023-04-17T04:26:28.328Z,312.00
2023-04-17T04:27:28.296Z,324.00
2023-04-17T04:28:28.376Z,332.00
2023-04-17T04:29:28.292Z,336.00
2023-04-17T04:30:28.285Z,348.00
2023-04-17T04:31:28.319Z,360.00
2023-04-17T04:32:28.363Z,376.00
2023-04-17T04:33:28.296Z,388.00
2023-04-17T04:34:28.274Z,408.00
2023-04-17T04:35:28.270Z,420.00
2023-04-17T04:36:28.285Z,432.00
2023-04-17T04:37:28.264Z,448.00
2023-04-17T04:38:28.401Z,460.00
2023-04-17T04:39:28.257Z,476.00
2023-04-17T04:40:28.261Z,492.00
2023-04-17T04:41:28.255Z,508.00
2023-04-17T04:42:28.267Z,528.00
2023-04-17T04:43:28.247Z,548.00
2023-04-17T04:44:28.253Z,564.00
2023-04-17T04:45:28.249Z,584.00
2023-04-17T04:46:28.275Z,600.00
2023-04-17T04:47:28.281Z,624.00
2023-04-17T04:48:28.257Z,644.00
2023-04-17T04:49:28.234Z,656.00
2023-04-17T04:50:28.248Z,684.00
2023-04-17T04:51:28.230Z,716.00
2023-04-17T04:52:28.234Z,740.00
2023-04-17T04:53:28.231Z,764.00
2023-04-17T04:54:28.226Z,792.00
2023-04-17T04:55:28.216Z,808.00
2023-04-17T04:56:28.550Z,832.00
2023-04-17T04:57:28.216Z,860.00
2023-04-17T04:58:28.204Z,876.00
2023-04-17T04:59:28.203Z,896.00
2023-04-17T05:00:28.210Z,940.00
2023-04-17T05:01:28.359Z,940.00
2023-04-17T05:02:28.281Z,1008.00
2023-04-17T05:03:28.298Z,1056.00
2023-04-17T05:04:28.382Z,1104.00
2023-04-17T05:05:28.194Z,1132.00
2023-04-17T05:06:28.191Z,1148.00
2023-04-17T05:07:28.186Z,1180.00
2023-04-17T05:08:28.194Z,1220.00
2023-04-17T05:09:28.177Z,1260.00
2023-04-17T05:10:28.183Z,1308.00
2023-04-17T05:11:28.188Z,1336.00
2023-04-17T05:12:28.181Z,1368.00
2023-04-17T05:13:28.177Z,1436.00
2023-04-17T05:14:28.164Z,1440.00
2023-04-17T05:15:28.161Z,1528.00
2023-04-17T05:16:28.224Z,1480.00
2023-04-17T05:17:28.192Z,1564.00
2023-04-17T05:18:28.166Z,1596.00
2023-04-17T05:19:28.157Z,1632.00
2023-04-17T05:20:28.179Z,1660.00
2023-04-17T05:21:30.507Z,1656.00
2023-04-17T05:22:28.154Z,1640.00
2023-04-17T05:23:28.171Z,1736.00
2023-04-17T05:24:28.146Z,1796.00
2023-04-17T05:25:28.147Z,1864.00
2023-04-17T05:26:28.143Z,1928.00
2023-04-17T05:27:28.145Z,1940.00
2023-04-17T05:28:28.138Z,2040.00
2023-04-17T05:29:28.133Z,2076.00
2023-04-17T05:30:28.132Z,2092.00
2023-04-17T05:31:28.151Z,2124.00
2023-04-17T05:32:28.162Z,2156.00
2023-04-17T05:33:28.122Z,2100.00
2023-04-17T05:34:28.119Z,2036.00
2023-04-17T05:35:28.112Z,1960.00
2023-04-17T05:36:28.137Z,2048.00
2023-04-17T05:37:28.132Z,2084.00
2023-04-17T05:38:28.106Z,2148.00
2023-04-17T05:39:28.113Z,2208.00
2023-04-17T05:40:28.102Z,2116.00
2023-04-17T05:41:28.101Z,2104.00
2023-04-17T05:42:28.112Z,2156.00
2023-04-17T05:43:28.090Z,2244.00
2023-04-17T05:44:28.112Z,2228.00
2023-04-17T05:45:28.141Z,2380.00
2023-04-17T05:46:28.103Z,2432.00
2023-04-17T05:47:28.107Z,2428.00
2023-04-17T05:48:28.081Z,2696.00
2023-04-17T05:49:28.082Z,2796.00
2023-04-17T05:50:28.074Z,2660.00
2023-04-17T05:51:28.068Z,2884.00
2023-04-17T05:52:28.089Z,2736.00
2023-04-17T05:53:28.064Z,2944.00
2023-04-17T05:54:28.062Z,3100.00
2023-04-17T05:55:28.069Z,3168.00
2023-04-17T05:56:28.060Z,3432.00
2023-04-17T05:57:28.063Z,3584.00
2023-04-17T05:58:28.058Z,3656.00
2023-04-17T05:59:28.053Z,3704.00
2023-04-17T06:00:28.072Z,3560.00
2023-04-17T06:01:28.043Z,3396.00
2023-04-17T06:02:28.535Z,3288.00
2023-04-17T06:03:28.246Z,3000.00
2023-04-17T06:04:28.266Z,3348.00
2023-04-17T06:05:28.150Z,3852.00
2023-04-17T06:06:28.047Z,3840.00
2023-04-17T06:07:28.032Z,3708.00
2023-04-17T06:08:28.070Z,3644.00
2023-04-17T06:09:28.024Z,3544.00
2023-04-17T06:10:28.058Z,3608.00
2023-04-17T06:11:28.021Z,3624.00
2023-04-17T06:12:28.022Z,3876.00
2023-04-17T06:13:28.014Z,3444.00
2023-04-17T06:14:28.018Z,3448.00
2023-04-17T06:15:28.013Z,3432.00
2023-04-17T06:16:28.050Z,3412.00
2023-04-17T06:17:28.037Z,3836.00
2023-04-17T06:18:28.014Z,3368.00
2023-04-17T06:19:28.004Z,3352.00
2023-04-17T06:20:28.043Z,3040.00
2023-04-17T06:21:28.016Z,3220.00
2023-04-17T06:22:27.996Z,3820.00
2023-04-17T06:23:28.000Z,3572.00
2023-04-17T06:24:28.025Z,3200.00
2023-04-17T06:25:27.989Z,2896.00
2023-04-17T06:26:28.003Z,2984.00
2023-04-17T06:27:27.994Z,3276.00
2023-04-17T06:28:28.000Z,3596.00
2023-04-17T06:29:27.977Z,4328.00
2023-04-17T06:30:27.989Z,4588.00
2023-04-17T06:31:28.060Z,3664.00
2023-04-17T06:32:28.008Z,3356.00
2023-04-17T06:33:27.982Z,3664.00
2023-04-17T06:34:27.973Z,3744.00
2023-04-17T06:35:27.965Z,3112.00
2023-04-17T06:36:27.974Z,3152.00
2023-04-17T06:37:27.966Z,3960.00
2023-04-17T06:38:27.966Z,4016.00
2023-04-17T06:39:27.966Z,4100.00
2023-04-17T06:40:27.983Z,3500.00
2023-04-17T06:41:27.960Z,4772.00
2023-04-17T06:42:27.954Z,4632.00
2023-04-17T06:43:27.952Z,4568.00
2023-04-17T06:44:27.969Z,5528.00
2023-04-17T06:45:27.953Z,5204.00
2023-04-17T06:46:27.999Z,5048.00
2023-04-17T06:47:27.973Z,4280.00
2023-04-17T06:48:27.945Z,3900.00
2023-04-17T06:49:27.939Z,3880.00
2023-04-17T06:50:27.958Z,3416.00
2023-04-17T06:51:27.941Z,3280.00
2023-04-17T06:52:27.938Z,3740.00
2023-04-17T06:53:27.933Z,3436.00
2023-04-17T06:54:27.933Z,3516.00
2023-04-17T06:55:27.929Z,3724.00
2023-04-17T06:56:27.998Z,4372.00
2023-04-17T06:57:27.923Z,3612.00
2023-04-17T06:58:27.934Z,2976.00
2023-04-17T06:59:27.922Z,2404.00
2023-04-17T07:00:27.936Z,2596.00
2023-04-17T07:01:27.980Z,2996.00
2023-04-17T07:02:28.013Z,3416.00
2023-04-17T07:03:28.112Z,2924.00
2023-04-17T07:04:27.908Z,2808.00
2023-04-17T07:05:27.945Z,3176.00
2023-04-17T07:06:27.908Z,2868.00
2023-04-17T07:07:27.906Z,2464.00
2023-04-17T07:08:27.901Z,2440.00
2023-04-17T07:09:27.917Z,2552.00
2023-04-17T07:10:27.904Z,2600.00
2023-04-17T07:11:27.900Z,2308.00
2023-04-17T07:12:27.930Z,2448.00
2023-04-17T07:13:27.890Z,2724.00
2023-04-17T07:14:27.892Z,2592.00
2023-04-17T07:15:27.904Z,3140.00
2023-04-17T07:16:27.912Z,2672.00
2023-04-17T07:17:27.943Z,2512.00
2023-04-17T07:18:27.879Z,3208.00
2023-04-17T07:19:27.885Z,2820.00
2023-04-17T07:20:27.900Z,2648.00
2023-04-17T07:21:27.895Z,3016.00
2023-04-17T07:22:27.877Z,2872.00
2023-04-17T07:23:27.903Z,2604.00
2023-04-17T07:24:27.884Z,2820.00
2023-04-17T07:25:27.890Z,2980.00
2023-04-17T07:26:27.872Z,3092.00
2023-04-17T07:27:27.914Z,3544.00
2023-04-17T07:28:28.093Z,3392.00
2023-04-17T07:29:27.879Z,3752.00
2023-04-17T07:30:27.882Z,3572.00
2023-04-17T07:31:27.879Z,3476.00
2023-04-17T07:32:27.902Z,3756.00
2023-04-17T07:33:27.857Z,4224.00
2023-04-17T07:34:27.856Z,5212.00
2023-04-17T07:35:27.882Z,4444.00
2023-04-17T07:36:27.840Z,4248.00
2023-04-17T07:37:27.847Z,4860.00
2023-04-17T07:38:27.854Z,4992.00
2023-04-17T07:39:27.848Z,5952.00
2023-04-17T07:40:27.853Z,7416.00
2023-04-17T07:41:27.839Z,6816.00
2023-04-17T07:42:27.840Z,4796.00
2023-04-17T07:43:27.836Z,4592.00
2023-04-17T07:44:27.878Z,5112.00
2023-04-17T07:45:27.858Z,4824.00
2023-04-17T07:46:27.854Z,6404.00
2023-04-17T07:47:27.865Z,8132.00
2023-04-17T07:48:27.828Z,7372.00
2023-04-17T07:49:27.825Z,4744.00
2023-04-17T07:50:27.836Z,3840.00
2023-04-17T07:51:27.822Z,4324.00
2023-04-17T07:52:27.825Z,6940.00
2023-04-17T07:53:27.817Z,6668.00
2023-04-17T07:54:27.826Z,7156.00
2023-04-17T07:55:27.834Z,6628.00
2023-04-17T07:56:27.819Z,7408.00
2023-04-17T07:57:27.824Z,5696.00
2023-04-17T07:58:27.814Z,5424.00
2023-04-17T07:59:27.810Z,7992.00
2023-04-17T08:00:27.827Z,7448.00
2023-04-17T08:01:27.825Z,5600.00
2023-04-17T08:02:27.867Z,6852.00
2023-04-17T08:03:27.958Z,7156.00
2023-04-17T08:04:27.954Z,6972.00
2023-04-17T08:05:27.930Z,7720.00
2023-04-17T08:06:27.792Z,4972.00
2023-04-17T08:07:27.795Z,4320.00
2023-04-17T08:08:27.798Z,4780.00
2023-04-17T08:09:27.798Z,4984.00
2023-04-17T08:10:27.798Z,4908.00
2023-04-17T08:11:27.788Z,5668.00
2023-04-17T08:12:27.785Z,5788.00
2023-04-17T08:13:27.789Z,5036.00
2023-04-17T08:14:27.787Z,5188.00
2023-04-17T08:15:27.799Z,5880.00
2023-04-17T08:16:27.823Z,4664.00
2023-04-17T08:17:27.840Z,4872.00
2023-04-17T08:18:27.816Z,5004.00
2023-04-17T08:19:27.783Z,5164.00
2023-04-17T08:20:27.784Z,4300.00
2023-04-17T08:21:27.802Z,7480.00
2023-04-17T08:22:27.789Z,6088.00
2023-04-17T08:23:27.793Z,4824.00
2023-04-17T08:24:27.774Z,4524.00
2023-04-17T08:25:27.798Z,4236.00
2023-04-17T08:26:27.785Z,3892.00
2023-04-17T08:27:27.775Z,3968.00
2023-04-17T08:28:27.772Z,5676.00
2023-04-17T08:29:27.793Z,5864.00
2023-04-17T08:30:27.763Z,4884.00
2023-04-17T08:31:27.882Z,5288.00
2023-04-17T08:32:27.813Z,7756.00
2023-04-17T08:33:27.766Z,8844.00
2023-04-17T08:34:27.757Z,6768.00
2023-04-17T08:35:27.763Z,6592.00
2023-04-17T08:36:27.789Z,6192.00
2023-04-17T08:37:27.761Z,5944.00
2023-04-17T08:38:27.760Z,7020.00
2023-04-17T08:39:27.766Z,5620.00
2023-04-17T08:40:27.767Z,6548.00
2023-04-17T08:41:27.764Z,6256.00
2023-04-17T08:42:27.753Z,4944.00
2023-04-17T08:43:27.751Z,3488.00
2023-04-17T08:44:27.755Z,3616.00
2023-04-17T08:45:27.757Z,3752.00
2023-04-17T08:46:27.783Z,3976.00
2023-04-17T08:47:27.778Z,3512.00
2023-04-17T08:48:27.769Z,3432.00
2023-04-17T08:49:27.754Z,3744.00
2023-04-17T08:50:27.754Z,3728.00
2023-04-17T08:51:27.755Z,4300.00
2023-04-17T08:52:27.751Z,5596.00
2023-04-17T08:53:27.748Z,5836.00
2023-04-17T08:54:27.740Z,5320.00
2023-04-17T08:55:27.735Z,6688.00
2023-04-17T08:56:27.731Z,8508.00
2023-04-17T08:57:27.739Z,9588.00
2023-04-17T08:58:28.808Z,9932.00
2023-04-17T08:59:27.739Z,11900.00
2023-04-17T09:00:27.749Z,10520.00
2023-04-17T09:01:27.779Z,9488.00
2023-04-17T09:02:28.092Z,11152.00
2023-04-17T09:03:27.868Z,9372.00
2023-04-17T09:04:27.796Z,9744.00
2023-04-17T09:05:27.729Z,11348.00
2023-04-17T09:06:27.730Z,10392.00
2023-04-17T09:07:27.723Z,10516.00
2023-04-17T09:08:27.712Z,10468.00
2023-04-17T09:09:27.721Z,12420.00
2023-04-17T09:10:27.710Z,13948.00
2023-04-17T09:11:27.720Z,16836.00
2023-04-17T09:12:27.714Z,14784.00
2023-04-17T09:13:27.721Z,11688.00
2023-04-17T09:14:27.717Z,11740.00
2023-04-17T09:15:27.717Z,10928.00
2023-04-17T09:16:27.748Z,10732.00
2023-04-17T09:17:27.740Z,11760.00
2023-04-17T09:18:27.709Z,11780.00
2023-04-17T09:19:27.715Z,8540.00
2023-04-17T09:20:27.727Z,9228.00
2023-04-17T09:21:27.710Z,9580.00
2023-04-17T09:22:27.706Z,6540.00
2023-04-17T09:23:27.706Z,7608.00
2023-04-17T09:24:27.709Z,8804.00
2023-04-17T09:25:27.729Z,10516.00
2023-04-17T09:26:27.703Z,11900.00
2023-04-17T09:27:27.714Z,18336.00
2023-04-17T09:28:27.729Z,11376.00
2023-04-17T09:29:27.707Z,14172.00
2023-04-17T09:30:27.715Z,13064.00
2023-04-17T09:31:27.780Z,11444.00
2023-04-17T09:32:27.716Z,8076.00
2023-04-17T09:33:27.706Z,5048.00
2023-04-17T09:34:27.701Z,3828.00
2023-04-17T09:35:27.717Z,4264.00
2023-04-17T09:36:27.775Z,4884.00
2023-04-17T09:37:27.698Z,5212.00
2023-04-17T09:38:27.698Z,4900.00
2023-04-17T09:39:27.705Z,5196.00
2023-04-17T09:40:27.707Z,6644.00
2023-04-17T09:41:27.699Z,8084.00
2023-04-17T09:42:27.731Z,7792.00
2023-04-17T09:43:27.691Z,7628.00
2023-04-17T09:44:27.700Z,7004.00
2023-04-17T09:45:27.694Z,12180.00
2023-04-17T09:46:27.728Z,14004.00
2023-04-17T09:47:27.727Z,14136.00
2023-04-17T09:48:27.684Z,26336.00
2023-04-17T09:49:27.684Z,10488.00
2023-04-17T09:50:27.687Z,13204.00
2023-04-17T09:51:27.690Z,17824.00
2023-04-17T09:52:27.743Z,13128.00
2023-04-17T09:53:27.704Z,11084.00
2023-04-17T09:54:27.679Z,6520.00
2023-04-17T09:55:27.691Z,5964.00
2023-04-17T09:56:27.675Z,8304.00
2023-04-17T09:57:27.685Z,8840.00
2023-04-17T09:58:27.676Z,12008.00
2023-04-17T09:59:27.677Z,11208.00
2023-04-17T10:00:27.911Z,10672.00
2023-04-17T10:01:27.897Z,9412.00
2023-04-17T10:02:27.912Z,16404.00
2023-04-17T10:03:27.855Z,23456.00
2023-04-17T10:04:27.753Z,27296.00
2023-04-17T10:05:27.676Z,13068.00
2023-04-17T10:06:27.667Z,11232.00
2023-04-17T10:07:27.675Z,14464.00
2023-04-17T10:08:27.686Z,20000.00
2023-04-17T10:09:27.676Z,16564.00
2023-04-17T10:10:27.672Z,11792.00
2023-04-17T10:11:27.671Z,15736.00
2023-04-17T10:12:27.667Z,20320.00
2023-04-17T10:13:27.690Z,26368.00
2023-04-17T10:14:27.678Z,18656.00
2023-04-17T10:15:27.673Z,13264.00
2023-04-17T10:16:27.719Z,12596.00
2023-04-17T10:17:27.690Z,9804.00
2023-04-17T10:18:27.662Z,8520.00
2023-04-17T10:19:27.670Z,13980.00
2023-04-17T10:20:27.660Z,18912.00
2023-04-17T10:21:27.663Z,31072.00
2023-04-17T10:22:27.658Z,37760.00
2023-04-17T10:23:27.700Z,22784.00
2023-04-17T10:24:27.692Z,13764.00
2023-04-17T10:25:27.671Z,11908.00
2023-04-17T10:26:27.665Z,13132.00
2023-04-17T10:27:27.663Z,13096.00
2023-04-17T10:28:27.664Z,12104.00
2023-04-17T10:29:27.672Z,12428.00
2023-04-17T10:30:27.664Z,8980.00
2023-04-17T10:31:27.688Z,6216.00
2023-04-17T10:32:27.731Z,4292.00
2023-04-17T10:33:27.667Z,4628.00
2023-04-17T10:34:27.665Z,5044.00
2023-04-17T10:35:27.673Z,6964.00
2023-04-17T10:36:27.670Z,8380.00
2023-04-17T10:37:27.670Z,9368.00
2023-04-17T10:38:27.664Z,6304.00
2023-04-17T10:39:27.666Z,6244.00
2023-04-17T10:40:27.683Z,10032.00
2023-04-17T10:41:27.662Z,12872.00
2023-04-17T10:42:27.659Z,13424.00
2023-04-17T10:43:27.663Z,12012.00
2023-04-17T10:44:27.665Z,8448.00
2023-04-17T10:45:27.662Z,6584.00
2023-04-17T10:46:27.758Z,7504.00
2023-04-17T10:47:27.685Z,8544.00
2023-04-17T10:48:27.711Z,7852.00
2023-04-17T10:49:27.676Z,9100.00
2023-04-17T10:50:27.657Z,9184.00
2023-04-17T10:51:27.705Z,7564.00
2023-04-17T10:52:27.655Z,7328.00
2023-04-17T10:53:27.659Z,7156.00
2023-04-17T10:54:27.677Z,8848.00
2023-04-17T10:55:27.664Z,8224.00
2023-04-17T10:56:27.678Z,6144.00
2023-04-17T10:57:27.664Z,5668.00
2023-04-17T10:58:31.622Z,5132.00
2023-04-17T10:59:27.669Z,4056.00
2023-04-17T11:00:27.667Z,3628.00
2023-04-17T11:01:29.016Z,3032.00
2023-04-17T11:02:27.712Z,3068.00
2023-04-17T11:03:27.789Z,2948.00
2023-04-17T11:04:27.696Z,2932.00
2023-04-17T11:05:27.660Z,3912.00
2023-04-17T11:06:27.655Z,2888.00
2023-04-17T11:07:27.665Z,2708.00
2023-04-17T11:08:27.657Z,3064.00
2023-04-17T11:09:27.660Z,2896.00
2023-04-17T11:10:27.655Z,2676.00
2023-04-17T11:11:40.465Z,2520.00
2023-04-17T11:12:27.677Z,2604.00
2023-04-17T11:13:27.654Z,2592.00
2023-04-17T11:14:27.657Z,2600.00
2023-04-17T11:15:27.660Z,2712.00
2023-04-17T11:16:27.699Z,2716.00
2023-04-17T11:17:27.728Z,2756.00
2023-04-17T11:18:27.652Z,2924.00
2023-04-17T11:19:27.685Z,3504.00
2023-04-17T11:20:27.656Z,3700.00
2023-04-17T11:21:27.652Z,3808.00
2023-04-17T11:22:27.650Z,3988.00
2023-04-17T11:23:27.646Z,4388.00
2023-04-17T11:24:27.645Z,5392.00
2023-04-17T11:25:27.696Z,6516.00
2023-04-17T11:26:27.648Z,7260.00
2023-04-17T11:27:27.640Z,7672.00
2023-04-17T11:28:27.854Z,7772.00
2023-04-17T11:29:27.696Z,7720.00
2023-04-17T11:30:27.638Z,8196.00
2023-04-17T11:31:27.660Z,7836.00
2023-04-17T11:32:27.708Z,6800.00
2023-04-17T11:33:27.640Z,6476.00
2023-04-17T11:34:27.634Z,6316.00
2023-04-17T11:35:27.633Z,6248.00
2023-04-17T11:36:27.648Z,6352.00
2023-04-17T11:37:27.641Z,6784.00
2023-04-17T11:38:27.640Z,7124.00
2023-04-17T11:39:27.634Z,7472.00
2023-04-17T11:40:27.635Z,7580.00
2023-04-17T11:41:27.646Z,7436.00
2023-04-17T11:42:27.642Z,7276.00
2023-04-17T11:43:27.637Z,7100.00
2023-04-17T11:44:27.684Z,6976.00
2023-04-17T11:45:27.658Z,7240.00
2023-04-17T11:46:27.669Z,7228.00
2023-04-17T11:47:27.650Z,7068.00
2023-04-17T11:48:27.628Z,7080.00
2023-04-17T11:49:27.694Z,7084.00
2023-04-17T11:50:27.633Z,7076.00
2023-04-17T11:51:27.638Z,6784.00
2023-04-17T11:52:27.625Z,6252.00
2023-04-17T11:53:27.625Z,6088.00
2023-04-17T11:54:27.637Z,5956.00
2023-04-17T11:55:27.634Z,5724.00
2023-04-17T11:56:27.634Z,5432.00
2023-04-17T11:57:27.629Z,4908.00
2023-04-17T11:58:30.070Z,4600.00
2023-04-17T11:59:27.648Z,4568.00
2023-04-17T12:00:27.639Z,4660.00
2023-04-17T12:01:27.617Z,4528.00
2023-04-17T12:02:27.779Z,4368.00
2023-04-17T12:03:27.886Z,4620.00
2023-04-17T12:04:27.796Z,4824.00
2023-04-17T12:05:27.894Z,5020.00
2023-04-17T12:06:27.607Z,5148.00
2023-04-17T12:07:27.620Z,5164.00
2023-04-17T12:08:27.653Z,5192.00
2023-04-17T12:09:27.624Z,5188.00
2023-04-17T12:10:27.618Z,5416.00
2023-04-17T12:11:27.623Z,5212.00
2023-04-17T12:12:27.614Z,4984.00
2023-04-17T12:13:27.641Z,5252.00
2023-04-17T12:14:27.616Z,5360.00
2023-04-17T12:15:27.621Z,5240.00
2023-04-17T12:16:27.699Z,5528.00
2023-04-17T12:17:27.646Z,5332.00
2023-04-17T12:18:27.601Z,5116.00
2023-04-17T12:19:27.602Z,5500.00
2023-04-17T12:20:27.622Z,5416.00
2023-04-17T12:21:27.606Z,4600.00
2023-04-17T12:22:27.625Z,3668.00
2023-04-17T12:23:27.601Z,3044.00
2023-04-17T12:24:27.647Z,2628.00
2023-04-17T12:25:27.600Z,2604.00
2023-04-17T12:26:27.595Z,2636.00
2023-04-17T12:27:27.596Z,3212.00
2023-04-17T12:28:27.601Z,3520.00